sensor_id;sensor_type;location;lat;lon;timestamp;temperature;humidity
9544;DHT22;30418;51.45933468;7.33152330;2023-04-15T00:00:01;13.50;46.90
9544;DHT22;30418;51.45933468;7.33152330;2023-04-15T00:02:38;13.40;46.90
9544;DHT22;30418;51.45933468;7.33152330;2023-04-15T00:05:07;13.40;46.90
9544;DHT22;30418;51.45933468;7.33152330;2023-04-15T00:07:37;13.40;47.10
9544;DHT22;30418;51.45933468;7.33152330;2023-04-15T00:10:07;13.40;47.10
9544;DHT22;30418;51.45933468;7.33152330;2023-04-15T00:12:36;13.40;47.10
9544;DHT22;30418;51.45933468;7.33152330;2023-04-15T00:15:06;13.40;47.10
9544;DHT22;30418;51.45933468;7.33152330;2023-04-15T00:17:36;13.40;47.20
9544;DHT22;30418;51.45933468;7.33152330;2023-04-15T00:20:06;13.30;47.10
9544;DHT22;30418;51.45933468;7.33152330;2023-04-15T00:22:35;13.30;47.10
9544;DHT22;30418;51.45933468;7.33152330;2023-04-15T00:25:05;13.30;47.10
9544;DHT22;30418;51.45933468;7.33152330;2023-04-15T00:27:35;13.20;47.10
9544;DHT22;30418;51.45933468;7.33152330;2023-04-15T00:30:05;13.20;47.10
9544;DHT22;30418;51.45933468;7.33152330;2023-04-15T00:32:34;13.20;47.10
9544;DHT22;30418;51.45933468;7.33152330;2023-04-15T00:35:03;13.10;47.20
9544;DHT22;30418;51.45933468;7.33152330;2023-04-15T00:37:32;13.10;47.30
9544;DHT22;30418;51.45933468;7.33152330;2023-04-15T00:40:03;13.10;47.40
9544;DHT22;30418;51.45933468;7.33152330;2023-04-15T00:42:33;13.00;47.50
9544;DHT22;30418;51.45933468;7.33152330;2023-04-15T00:45:02;13.00;47.60
9544;DHT22;30418;51.45933468;7.33152330;2023-04-15T00:47:32;13.00;47.70
9544;DHT22;30418;51.45933468;7.33152330;2023-04-15T00:50:03;13.00;48.40
9544;DHT22;30418;51.45933468;7.33152330;2023-04-15T00:52:32;13.00;47.70
9544;DHT22;30418;51.45933468;7.33152330;2023-04-15T00:55:02;13.00;47.70
9544;DHT22;30418;51.45933468;7.33152330;2023-04-15T00:57:32;13.00;47.70
9544;DHT22;30418;51.45933468;7.33152330;2023-04-15T01:00:01;12.90;47.70
9544;DHT22;30418;51.45933468;7.33152330;2023-04-15T01:02:31;12.90;47.80
9544;DHT22;30418;51.45933468;7.33152330;2023-04-15T01:05:01;12.90;47.80
9544;DHT22;30418;51.45933468;7.33152330;2023-04-15T01:07:30;12.90;47.90
9544;DHT22;30418;51.45933468;7.33152330;2023-04-15T01:09:59;12.90;47.90
9544;DHT22;30418;51.45933468;7.33152330;2023-04-15T01:12:31;12.90;48.10
9544;DHT22;30418;51.45933468;7.33152330;2023-04-15T01:15:02;12.80;48.10
9544;DHT22;30418;51.45933468;7.33152330;2023-04-15T01:17:32;12.80;48.10
9544;DHT22;30418;51.45933468;7.33152330;2023-04-15T01:20:01;12.80;48.80
9544;DHT22;30418;51.45933468;7.33152330;2023-04-15T01:22:32;12.80;48.20
9544;DHT22;30418;51.45933468;7.33152330;2023-04-15T01:25:05;12.80;48.30
9544;DHT22;30418;51.45933468;7.33152330;2023-04-15T01:27:39;12.80;48.30
9544;DHT22;30418;51.45933468;7.33152330;2023-04-15T01:30:09;12.70;48.30
9544;DHT22;30418;51.45933468;7.33152330;2023-04-15T01:32:38;12.70;48.40
9544;DHT22;30418;51.45933468;7.33152330;2023-04-15T01:35:07;12.70;48.40
9544;DHT22;30418;51.45933468;7.33152330;2023-04-15T01:37:36;12.70;48.50
9544;DHT22;30418;51.45933468;7.33152330;2023-04-15T01:40:06;12.70;48.50
9544;DHT22;30418;51.45933468;7.33152330;2023-04-15T01:42:36;12.70;48.60
9544;DHT22;30418;51.45933468;7.33152330;2023-04-15T01:45:08;12.70;48.60
9544;DHT22;30418;51.45933468;7.33152330;2023-04-15T01:47:38;12.60;48.60
9544;DHT22;30418;51.45933468;7.33152330;2023-04-15T01:50:09;12.60;48.60
9544;DHT22;30418;51.45933468;7.33152330;2023-04-15T01:52:38;12.60;48.70
9544;DHT22;30418;51.45933468;7.33152330;2023-04-15T01:55:07;12.60;48.70
9544;DHT22;30418;51.45933468;7.33152330;2023-04-15T01:57:37;12.60;48.70
9544;DHT22;30418;51.45933468;7.33152330;2023-04-15T02:00:09;12.60;48.80
9544;DHT22;30418;51.45933468;7.33152330;2023-04-15T02:02:41;12.60;48.90
9544;DHT22;30418;51.45933468;7.33152330;2023-04-15T02:05:10;12.50;48.80
9544;DHT22;30418;51.45933468;7.33152330;2023-04-15T02:07:39;12.50;48.90
9544;DHT22;30418;51.45933468;7.33152330;2023-04-15T02:10:09;12.50;48.90
9544;DHT22;30418;51.45933468;7.33152330;2023-04-15T02:12:39;12.50;49.00
9544;DHT22;30418;51.45933468;7.33152330;2023-04-15T02:15:10;12.50;49.00
9544;DHT22;30418;51.45933468;7.33152330;2023-04-15T02:17:38;12.50;49.00
9544;DHT22;30418;51.45933468;7.33152330;2023-04-15T02:20:09;12.50;49.00
9544;DHT22;30418;51.45933468;7.33152330;2023-04-15T02:22:38;12.50;49.00
9544;DHT22;30418;51.45933468;7.33152330;2023-04-15T02:25:07;12.50;49.00
9544;DHT22;30418;51.45933468;7.33152330;2023-04-15T02:27:36;12.40;48.90
9544;DHT22;30418;51.45933468;7.33152330;2023-04-15T02:30:06;12.40;48.90
9544;DHT22;30418;51.45933468;7.33152330;2023-04-15T02:32:36;12.40;48.90
9544;DHT22;30418;51.45933468;7.33152330;2023-04-15T02:35:07;12.30;48.90
9544;DHT22;30418;51.45933468;7.33152330;2023-04-15T02:37:36;12.30;49.00
9544;DHT22;30418;51.45933468;7.33152330;2023-04-15T02:40:11;12.30;49.10
9544;DHT22;30418;51.45933468;7.33152330;2023-04-15T02:42:40;12.30;49.10
9544;DHT22;30418;51.45933468;7.33152330;2023-04-15T02:45:12;12.30;49.20
9544;DHT22;30418;51.45933468;7.33152330;2023-04-15T02:47:44;12.20;49.10
9544;DHT22;30418;51.45933468;7.33152330;2023-04-15T02:50:13;12.20;49.20
9544;DHT22;30418;51.45933468;7.33152330;2023-04-15T02:52:42;12.20;49.20
9544;DHT22;30418;51.45933468;7.33152330;2023-04-15T02:55:11;12.20;49.20
9544;DHT22;30418;51.45933468;7.33152330;2023-04-15T02:57:40;12.20;49.20
9544;DHT22;30418;51.45933468;7.33152330;2023-04-15T03:00:10;12.10;49.20
9544;DHT22;30418;51.45933468;7.33152330;2023-04-15T03:02:45;12.10;49.20
9544;DHT22;30418;51.45933468;7.33152330;2023-04-15T03:05:14;12.10;49.30
9544;DHT22;30418;51.45933468;7.33152330;2023-04-15T03:07:48;12.10;49.30
9544;DHT22;30418;51.45933468;7.33152330;2023-04-15T03:10:17;12.00;49.80
9544;DHT22;30418;51.45933468;7.33152330;2023-04-15T03:12:46;12.00;49.30
9544;DHT22;30418;51.45933468;7.33152330;2023-04-15T03:15:20;12.00;49.40
9544;DHT22;30418;51.45933468;7.33152330;2023-04-15T03:17:53;12.00;49.40
9544;DHT22;30418;51.45933468;7.33152330;2023-04-15T03:20:21;12.00;49.50
9544;DHT22;30418;51.45933468;7.33152330;2023-04-15T03:22:50;12.00;49.50
9544;DHT22;30418;51.45933468;7.33152330;2023-04-15T03:25:21;11.90;49.50
9544;DHT22;30418;51.45933468;7.33152330;2023-04-15T03:27:49;11.90;49.50
9544;DHT22;30418;51.45933468;7.33152330;2023-04-15T03:30:18;11.90;49.50
9544;DHT22;30418;51.45933468;7.33152330;2023-04-15T03:32:46;11.90;49.50
9544;DHT22;30418;51.45933468;7.33152330;2023-04-15T03:35:16;11.90;49.70
9544;DHT22;30418;51.45933468;7.33152330;2023-04-15T03:37:45;11.90;49.80
9544;DHT22;30418;51.45933468;7.33152330;2023-04-15T03:40:15;11.80;49.70
9544;DHT22;30418;51.45933468;7.33152330;2023-04-15T03:42:44;11.90;49.90
9544;DHT22;30418;51.45933468;7.33152330;2023-04-15T03:45:12;11.80;49.80
9544;DHT22;30418;51.45933468;7.33152330;2023-04-15T03:47:41;11.80;49.90
9544;DHT22;30418;51.45933468;7.33152330;2023-04-15T03:50:10;11.80;50.60
9544;DHT22;30418;51.45933468;7.33152330;2023-04-15T03:52:39;11.80;50.00
9544;DHT22;30418;51.45933468;7.33152330;2023-04-15T03:55:08;11.80;50.00
9544;DHT22;30418;51.45933468;7.33152330;2023-04-15T03:57:37;11.80;50.10
9544;DHT22;30418;51.45933468;7.33152330;2023-04-15T04:00:07;11.70;50.00
9544;DHT22;30418;51.45933468;7.33152330;2023-04-15T04:02:39;11.70;50.20
9544;DHT22;30418;51.45933468;7.33152330;2023-04-15T04:05:08;11.70;50.20
9544;DHT22;30418;51.45933468;7.33152330;2023-04-15T04:07:38;11.70;50.20
9544;DHT22;30418;51.45933468;7.33152330;2023-04-15T04:10:08;11.70;50.30
9544;DHT22;30418;51.45933468;7.33152330;2023-04-15T04:12:37;11.70;50.40
9544;DHT22;30418;51.45933468;7.33152330;2023-04-15T04:15:06;11.70;50.40
9544;DHT22;30418;51.45933468;7.33152330;2023-04-15T04:17:37;11.70;50.50
9544;DHT22;30418;51.45933468;7.33152330;2023-04-15T04:20:07;11.70;50.50
9544;DHT22;30418;51.45933468;7.33152330;2023-04-15T04:22:38;11.70;51.10
9544;DHT22;30418;51.45933468;7.33152330;2023-04-15T04:25:08;11.70;50.60
9544;DHT22;30418;51.45933468;7.33152330;2023-04-15T04:27:37;11.60;50.50
9544;DHT22;30418;51.45933468;7.33152330;2023-04-15T04:30:06;11.60;50.60
9544;DHT22;30418;51.45933468;7.33152330;2023-04-15T04:32:35;11.60;50.70
9544;DHT22;30418;51.45933468;7.33152330;2023-04-15T04:35:04;11.60;50.70
9544;DHT22;30418;51.45933468;7.33152330;2023-04-15T04:37:33;11.60;50.70
9544;DHT22;30418;51.45933468;7.33152330;2023-04-15T04:40:03;11.60;50.70
9544;DHT22;30418;51.45933468;7.33152330;2023-04-15T04:42:32;11.60;50.70
9544;DHT22;30418;51.45933468;7.33152330;2023-04-15T04:45:04;11.60;50.70
9544;DHT22;30418;51.45933468;7.33152330;2023-04-15T04:47:33;11.60;50.70
9544;DHT22;30418;51.45933468;7.33152330;2023-04-15T04:50:02;11.60;50.70
9544;DHT22;30418;51.45933468;7.33152330;2023-04-15T04:52:31;11.60;50.70
9544;DHT22;30418;51.45933468;7.33152330;2023-04-15T04:55:01;11.50;50.60
9544;DHT22;30418;51.45933468;7.33152330;2023-04-15T04:57:30;11.50;50.70
9544;DHT22;30418;51.45933468;7.33152330;2023-04-15T04:59:59;11.50;50.60
9544;DHT22;30418;51.45933468;7.33152330;2023-04-15T05:02:27;11.50;50.70
9544;DHT22;30418;51.45933468;7.33152330;2023-04-15T05:04:56;11.50;50.70
9544;DHT22;30418;51.45933468;7.33152330;2023-04-15T05:07:25;11.50;50.70
9544;DHT22;30418;51.45933468;7.33152330;2023-04-15T05:09:53;11.50;50.70
9544;DHT22;30418;51.45933468;7.33152330;2023-04-15T05:12:23;11.50;50.70
9544;DHT22;30418;51.45933468;7.33152330;2023-04-15T05:14:52;11.50;50.80
9544;DHT22;30418;51.45933468;7.33152330;2023-04-15T05:17:21;11.40;50.80
9544;DHT22;30418;51.45933468;7.33152330;2023-04-15T05:19:50;11.40;50.80
9544;DHT22;30418;51.45933468;7.33152330;2023-04-15T05:22:19;11.40;50.90
9544;DHT22;30418;51.45933468;7.33152330;2023-04-15T05:24:47;11.50;50.90
9544;DHT22;30418;51.45933468;7.33152330;2023-04-15T05:27:16;11.40;50.90
9544;DHT22;30418;51.45933468;7.33152330;2023-04-15T05:29:46;11.40;50.90
9544;DHT22;30418;51.45933468;7.33152330;2023-04-15T05:32:14;11.40;51.00
9544;DHT22;30418;51.45933468;7.33152330;2023-04-15T05:34:43;11.40;51.00
9544;DHT22;30418;51.45933468;7.33152330;2023-04-15T05:37:11;11.40;51.00
9544;DHT22;30418;51.45933468;7.33152330;2023-04-15T05:39:40;11.40;51.10
9544;DHT22;30418;51.45933468;7.33152330;2023-04-15T05:42:09;11.40;51.20
9544;DHT22;30418;51.45933468;7.33152330;2023-04-15T05:44:38;11.40;51.20
9544;DHT22;30418;51.45933468;7.33152330;2023-04-15T05:47:08;11.40;51.20
9544;DHT22;30418;51.45933468;7.33152330;2023-04-15T05:49:36;11.40;51.30
9544;DHT22;30418;51.45933468;7.33152330;2023-04-15T05:52:05;11.40;51.30
9544;DHT22;30418;51.45933468;7.33152330;2023-04-15T05:54:33;11.40;51.40
9544;DHT22;30418;51.45933468;7.33152330;2023-04-15T05:57:02;11.30;51.30
9544;DHT22;30418;51.45933468;7.33152330;2023-04-15T05:59:31;11.30;51.30
9544;DHT22;30418;51.45933468;7.33152330;2023-04-15T06:01:59;11.30;51.40
9544;DHT22;30418;51.45933468;7.33152330;2023-04-15T06:04:29;11.40;51.60
9544;DHT22;30418;51.45933468;7.33152330;2023-04-15T06:06:58;11.30;51.60
9544;DHT22;30418;51.45933468;7.33152330;2023-04-15T06:09:27;11.40;51.70
9544;DHT22;30418;51.45933468;7.33152330;2023-04-15T06:11:55;11.40;51.80
9544;DHT22;30418;51.45933468;7.33152330;2023-04-15T06:14:24;11.40;51.90
9544;DHT22;30418;51.45933468;7.33152330;2023-04-15T06:16:53;11.40;51.90
9544;DHT22;30418;51.45933468;7.33152330;2023-04-15T06:19:21;11.40;51.90
9544;DHT22;30418;51.45933468;7.33152330;2023-04-15T06:21:51;11.40;51.90
9544;DHT22;30418;51.45933468;7.33152330;2023-04-15T06:24:20;11.40;51.90
9544;DHT22;30418;51.45933468;7.33152330;2023-04-15T06:26:48;11.40;51.90
9544;DHT22;30418;51.45933468;7.33152330;2023-04-15T06:29:17;11.40;51.90
9544;DHT22;30418;51.45933468;7.33152330;2023-04-15T06:31:46;11.40;52.00
9544;DHT22;30418;51.45933468;7.33152330;2023-04-15T06:34:16;11.40;52.10
9544;DHT22;30418;51.45933468;7.33152330;2023-04-15T06:36:45;11.40;52.20
9544;DHT22;30418;51.45933468;7.33152330;2023-04-15T06:39:14;11.40;52.20
9544;DHT22;30418;51.45933468;7.33152330;2023-04-15T06:41:43;11.40;52.30
9544;DHT22;30418;51.45933468;7.33152330;2023-04-15T06:44:11;11.50;53.00
9544;DHT22;30418;51.45933468;7.33152330;2023-04-15T06:46:40;11.50;52.50
9544;DHT22;30418;51.45933468;7.33152330;2023-04-15T06:49:09;11.50;52.50
9544;DHT22;30418;51.45933468;7.33152330;2023-04-15T06:51:38;11.60;52.70
9544;DHT22;30418;51.45933468;7.33152330;2023-04-15T06:54:06;11.60;52.70
9544;DHT22;30418;51.45933468;7.33152330;2023-04-15T06:56:36;11.60;53.30
9544;DHT22;30418;51.45933468;7.33152330;2023-04-15T06:59:05;11.60;52.70
9544;DHT22;30418;51.45933468;7.33152330;2023-04-15T07:01:34;11.60;52.70
9544;DHT22;30418;51.45933468;7.33152330;2023-04-15T07:04:04;11.70;52.80
9544;DHT22;30418;51.45933468;7.33152330;2023-04-15T07:06:32;11.70;52.80
9544;DHT22;30418;51.45933468;7.33152330;2023-04-15T07:09:01;11.70;52.80
9544;DHT22;30418;51.45933468;7.33152330;2023-04-15T07:11:31;11.70;52.80
9544;DHT22;30418;51.45933468;7.33152330;2023-04-15T07:14:01;11.70;52.90
9544;DHT22;30418;51.45933468;7.33152330;2023-04-15T07:16:30;11.70;53.00
9544;DHT22;30418;51.45933468;7.33152330;2023-04-15T07:18:58;11.70;53.00
9544;DHT22;30418;51.45933468;7.33152330;2023-04-15T07:21:27;11.70;53.10
9544;DHT22;30418;51.45933468;7.33152330;2023-04-15T07:23:55;11.70;53.20
9544;DHT22;30418;51.45933468;7.33152330;2023-04-15T07:26:24;11.70;53.20
9544;DHT22;30418;51.45933468;7.33152330;2023-04-15T07:28:53;11.70;53.20
9544;DHT22;30418;51.45933468;7.33152330;2023-04-15T07:31:23;11.70;53.30
9544;DHT22;30418;51.45933468;7.33152330;2023-04-15T07:33:53;11.70;53.60
9544;DHT22;30418;51.45933468;7.33152330;2023-04-15T07:36:21;11.80;53.60
9544;DHT22;30418;51.45933468;7.33152330;2023-04-15T07:38:50;11.70;53.50
9544;DHT22;30418;51.45933468;7.33152330;2023-04-15T07:41:18;11.80;53.70
9544;DHT22;30418;51.45933468;7.33152330;2023-04-15T07:43:47;11.80;53.70
9544;DHT22;30418;51.45933468;7.33152330;2023-04-15T07:46:16;11.80;53.80
9544;DHT22;30418;51.45933468;7.33152330;2023-04-15T07:48:46;11.80;53.80
9544;DHT22;30418;51.45933468;7.33152330;2023-04-15T07:51:14;11.90;53.90
9544;DHT22;30418;51.45933468;7.33152330;2023-04-15T07:53:43;11.80;53.90
9544;DHT22;30418;51.45933468;7.33152330;2023-04-15T07:56:11;11.90;54.00
9544;DHT22;30418;51.45933468;7.33152330;2023-04-15T07:58:40;11.90;54.00
9544;DHT22;30418;51.45933468;7.33152330;2023-04-15T08:01:08;11.90;54.00
9544;DHT22;30418;51.45933468;7.33152330;2023-04-15T08:03:38;11.90;54.10
9544;DHT22;30418;51.45933468;7.33152330;2023-04-15T08:06:08;11.90;54.10
9544;DHT22;30418;51.45933468;7.33152330;2023-04-15T08:08:37;11.90;54.20
9544;DHT22;30418;51.45933468;7.33152330;2023-04-15T08:11:05;12.00;54.30
9544;DHT22;30418;51.45933468;7.33152330;2023-04-15T08:13:34;12.00;54.40
9544;DHT22;30418;51.45933468;7.33152330;2023-04-15T08:16:18;12.00;54.30
9544;DHT22;30418;51.45933468;7.33152330;2023-04-15T08:18:48;12.00;54.90
9544;DHT22;30418;51.45933468;7.33152330;2023-04-15T08:21:19;12.00;54.50
9544;DHT22;30418;51.45933468;7.33152330;2023-04-15T08:23:50;12.00;54.70
9544;DHT22;30418;51.45933468;7.33152330;2023-04-15T08:26:20;12.10;54.80
9544;DHT22;30418;51.45933468;7.33152330;2023-04-15T08:28:49;12.10;54.70
9544;DHT22;30418;51.45933468;7.33152330;2023-04-15T08:31:18;12.20;54.90
9544;DHT22;30418;51.45933468;7.33152330;2023-04-15T08:33:48;12.20;54.70
9544;DHT22;30418;51.45933468;7.33152330;2023-04-15T08:36:19;12.30;54.70
9544;DHT22;30418;51.45933468;7.33152330;2023-04-15T08:38:47;12.30;54.70
9544;DHT22;30418;51.45933468;7.33152330;2023-04-15T08:41:20;12.30;54.60
9544;DHT22;30418;51.45933468;7.33152330;2023-04-15T08:43:55;12.30;54.70
9544;DHT22;30418;51.45933468;7.33152330;2023-04-15T08:46:25;12.30;54.70
9544;DHT22;30418;51.45933468;7.33152330;2023-04-15T08:48:56;12.30;55.20
9544;DHT22;30418;51.45933468;7.33152330;2023-04-15T08:51:27;12.40;54.70
9544;DHT22;30418;51.45933468;7.33152330;2023-04-15T08:53:56;12.40;54.70
9544;DHT22;30418;51.45933468;7.33152330;2023-04-15T08:56:25;12.40;54.60
9544;DHT22;30418;51.45933468;7.33152330;2023-04-15T08:58:56;12.40;54.50
9544;DHT22;30418;51.45933468;7.33152330;2023-04-15T09:01:25;12.40;54.60
9544;DHT22;30418;51.45933468;7.33152330;2023-04-15T09:03:55;12.50;54.70
9544;DHT22;30418;51.45933468;7.33152330;2023-04-15T09:06:24;12.50;54.80
9544;DHT22;30418;51.45933468;7.33152330;2023-04-15T09:08:55;12.50;54.80
9544;DHT22;30418;51.45933468;7.33152330;2023-04-15T09:11:24;12.50;54.80
9544;DHT22;30418;51.45933468;7.33152330;2023-04-15T09:13:52;12.50;54.70
9544;DHT22;30418;51.45933468;7.33152330;2023-04-15T09:16:21;12.50;54.80
9544;DHT22;30418;51.45933468;7.33152330;2023-04-15T09:18:51;12.50;55.00
9544;DHT22;30418;51.45933468;7.33152330;2023-04-15T09:21:20;12.50;54.90
9544;DHT22;30418;51.45933468;7.33152330;2023-04-15T09:23:58;12.50;54.90
9544;DHT22;30418;51.45933468;7.33152330;2023-04-15T09:26:32;12.50;55.10
9544;DHT22;30418;51.45933468;7.33152330;2023-04-15T09:29:04;12.50;55.00
9544;DHT22;30418;51.45933468;7.33152330;2023-04-15T09:31:55;12.40;54.90
9544;DHT22;30418;51.45933468;7.33152330;2023-04-15T09:34:34;12.40;55.20
9544;DHT22;30418;51.45933468;7.33152330;2023-04-15T09:37:03;12.40;55.20
9544;DHT22;30418;51.45933468;7.33152330;2023-04-15T09:39:47;12.40;55.10
9544;DHT22;30418;51.45933468;7.33152330;2023-04-15T09:42:16;12.40;55.50
9544;DHT22;30418;51.45933468;7.33152330;2023-04-15T09:44:50;12.40;55.30
9544;DHT22;30418;51.45933468;7.33152330;2023-04-15T09:47:28;12.40;55.40
9544;DHT22;30418;51.45933468;7.33152330;2023-04-15T09:49:59;12.40;55.80
9544;DHT22;30418;51.45933468;7.33152330;2023-04-15T09:52:29;12.40;55.60
9544;DHT22;30418;51.45933468;7.33152330;2023-04-15T09:54:59;12.40;55.80
9544;DHT22;30418;51.45933468;7.33152330;2023-04-15T09:57:33;12.50;56.00
9544;DHT22;30418;51.45933468;7.33152330;2023-04-15T10:00:03;12.50;56.30
9544;DHT22;30418;51.45933468;7.33152330;2023-04-15T10:02:32;12.50;56.30
9544;DHT22;30418;51.45933468;7.33152330;2023-04-15T10:05:02;12.50;56.20
9544;DHT22;30418;51.45933468;7.33152330;2023-04-15T10:07:32;12.60;56.20
9544;DHT22;30418;51.45933468;7.33152330;2023-04-15T10:10:04;12.60;56.40
9544;DHT22;30418;51.45933468;7.33152330;2023-04-15T10:12:33;12.60;56.90
9544;DHT22;30418;51.45933468;7.33152330;2023-04-15T10:15:05;12.60;56.20
9544;DHT22;30418;51.45933468;7.33152330;2023-04-15T10:17:35;12.60;56.20
9544;DHT22;30418;51.45933468;7.33152330;2023-04-15T10:20:05;12.60;56.20
9544;DHT22;30418;51.45933468;7.33152330;2023-04-15T10:22:35;12.60;56.10
9544;DHT22;30418;51.45933468;7.33152330;2023-04-15T10:25:08;12.60;56.10
9544;DHT22;30418;51.45933468;7.33152330;2023-04-15T10:27:39;12.60;56.40
9544;DHT22;30418;51.45933468;7.33152330;2023-04-15T10:30:08;12.60;56.30
9544;DHT22;30418;51.45933468;7.33152330;2023-04-15T10:32:39;12.50;56.20
9544;DHT22;30418;51.45933468;7.33152330;2023-04-15T10:35:08;12.50;56.30
9544;DHT22;30418;51.45933468;7.33152330;2023-04-15T10:37:38;12.50;56.30
9544;DHT22;30418;51.45933468;7.33152330;2023-04-15T10:40:28;12.50;56.30
9544;DHT22;30418;51.45933468;7.33152330;2023-04-15T10:42:59;12.50;56.60
9544;DHT22;30418;51.45933468;7.33152330;2023-04-15T10:45:32;12.50;56.40
9544;DHT22;30418;51.45933468;7.33152330;2023-04-15T10:48:05;12.50;56.40
9544;DHT22;30418;51.45933468;7.33152330;2023-04-15T10:50:36;12.50;56.30
9544;DHT22;30418;51.45933468;7.33152330;2023-04-15T10:53:05;12.50;56.40
9544;DHT22;30418;51.45933468;7.33152330;2023-04-15T10:55:39;12.50;56.50
9544;DHT22;30418;51.45933468;7.33152330;2023-04-15T10:58:09;12.50;56.70
9544;DHT22;30418;51.45933468;7.33152330;2023-04-15T11:00:37;12.50;56.60
9544;DHT22;30418;51.45933468;7.33152330;2023-04-15T11:03:06;12.50;56.60
9544;DHT22;30418;51.45933468;7.33152330;2023-04-15T11:05:49;12.40;56.60
9544;DHT22;30418;51.45933468;7.33152330;2023-04-15T11:08:18;12.50;57.10
9544;DHT22;30418;51.45933468;7.33152330;2023-04-15T11:10:52;12.50;56.70
9544;DHT22;30418;51.45933468;7.33152330;2023-04-15T11:13:23;12.50;57.00
9544;DHT22;30418;51.45933468;7.33152330;2023-04-15T11:15:58;12.50;56.80
9544;DHT22;30418;51.45933468;7.33152330;2023-04-15T11:18:33;12.50;56.90
9544;DHT22;30418;51.45933468;7.33152330;2023-04-15T11:21:04;12.50;56.90
9544;DHT22;30418;51.45933468;7.33152330;2023-04-15T11:23:37;12.50;57.00
9544;DHT22;30418;51.45933468;7.33152330;2023-04-15T11:26:09;12.50;57.00
9544;DHT22;30418;51.45933468;7.33152330;2023-04-15T11:28:40;12.50;57.20
9544;DHT22;30418;51.45933468;7.33152330;2023-04-15T11:31:11;12.50;57.10
9544;DHT22;30418;51.45933468;7.33152330;2023-04-15T11:33:52;12.50;57.10
9544;DHT22;30418;51.45933468;7.33152330;2023-04-15T11:36:24;12.50;57.30
9544;DHT22;30418;51.45933468;7.33152330;2023-04-15T11:38:57;12.50;57.10
9544;DHT22;30418;51.45933468;7.33152330;2023-04-15T11:41:28;12.50;57.10
9544;DHT22;30418;51.45933468;7.33152330;2023-04-15T11:43:56;12.50;57.10
9544;DHT22;30418;51.45933468;7.33152330;2023-04-15T11:46:28;12.40;57.00
9544;DHT22;30418;51.45933468;7.33152330;2023-04-15T11:48:58;12.50;57.20
9544;DHT22;30418;51.45933468;7.33152330;2023-04-15T11:51:31;12.50;57.10
9544;DHT22;30418;51.45933468;7.33152330;2023-04-15T11:54:01;12.50;57.30
9544;DHT22;30418;51.45933468;7.33152330;2023-04-15T11:56:31;12.50;57.20
9544;DHT22;30418;51.45933468;7.33152330;2023-04-15T11:59:00;12.50;57.20
9544;DHT22;30418;51.45933468;7.33152330;2023-04-15T12:01:32;12.50;57.30
9544;DHT22;30418;51.45933468;7.33152330;2023-04-15T12:04:10;12.50;57.40
9544;DHT22;30418;51.45933468;7.33152330;2023-04-15T12:06:39;12.50;57.60
9544;DHT22;30418;51.45933468;7.33152330;2023-04-15T12:09:09;12.50;57.50
9544;DHT22;30418;51.45933468;7.33152330;2023-04-15T12:11:43;12.50;57.60
9544;DHT22;30418;51.45933468;7.33152330;2023-04-15T12:14:18;12.50;57.70
9544;DHT22;30418;51.45933468;7.33152330;2023-04-15T12:16:50;12.60;57.80
9544;DHT22;30418;51.45933468;7.33152330;2023-04-15T12:19:25;12.60;57.80
9544;DHT22;30418;51.45933468;7.33152330;2023-04-15T12:21:57;12.60;57.80
9544;DHT22;30418;51.45933468;7.33152330;2023-04-15T12:24:30;12.60;57.80
9544;DHT22;30418;51.45933468;7.33152330;2023-04-15T12:27:03;12.60;57.90
9544;DHT22;30418;51.45933468;7.33152330;2023-04-15T12:29:33;12.60;58.10
9544;DHT22;30418;51.45933468;7.33152330;2023-04-15T12:32:07;12.60;58.10
9544;DHT22;30418;51.45933468;7.33152330;2023-04-15T12:34:37;12.60;58.20
9544;DHT22;30418;51.45933468;7.33152330;2023-04-15T12:37:08;12.60;58.10
9544;DHT22;30418;51.45933468;7.33152330;2023-04-15T12:39:38;12.60;58.10
9544;DHT22;30418;51.45933468;7.33152330;2023-04-15T12:42:10;12.60;58.20
9544;DHT22;30418;51.45933468;7.33152330;2023-04-15T12:44:39;12.60;58.20
9544;DHT22;30418;51.45933468;7.33152330;2023-04-15T12:47:08;12.60;58.20
9544;DHT22;30418;51.45933468;7.33152330;2023-04-15T12:49:37;12.60;58.30
9544;DHT22;30418;51.45933468;7.33152330;2023-04-15T12:52:07;12.60;58.30
9544;DHT22;30418;51.45933468;7.33152330;2023-04-15T12:54:35;12.60;58.30
9544;DHT22;30418;51.45933468;7.33152330;2023-04-15T12:57:04;12.60;58.30
9544;DHT22;30418;51.45933468;7.33152330;2023-04-15T12:59:35;12.60;58.10
9544;DHT22;30418;51.45933468;7.33152330;2023-04-15T13:02:04;12.60;58.30
9544;DHT22;30418;51.45933468;7.33152330;2023-04-15T13:04:33;12.60;58.20
9544;DHT22;30418;51.45933468;7.33152330;2023-04-15T13:07:02;12.60;58.30
9544;DHT22;30418;51.45933468;7.33152330;2023-04-15T13:09:30;12.60;58.30
9544;DHT22;30418;51.45933468;7.33152330;2023-04-15T13:12:00;12.60;58.40
9544;DHT22;30418;51.45933468;7.33152330;2023-04-15T13:14:30;12.60;58.50
9544;DHT22;30418;51.45933468;7.33152330;2023-04-15T13:17:00;12.60;58.50
9544;DHT22;30418;51.45933468;7.33152330;2023-04-15T13:19:30;12.70;58.80
9544;DHT22;30418;51.45933468;7.33152330;2023-04-15T13:21:59;12.70;58.70
9544;DHT22;30418;51.45933468;7.33152330;2023-04-15T13:24:28;12.70;58.60
9544;DHT22;30418;51.45933468;7.33152330;2023-04-15T13:26:56;12.70;58.50
9544;DHT22;30418;51.45933468;7.33152330;2023-04-15T13:29:25;12.70;58.70
9544;DHT22;30418;51.45933468;7.33152330;2023-04-15T13:31:54;12.70;58.80
9544;DHT22;30418;51.45933468;7.33152330;2023-04-15T13:34:24;12.70;58.80
9544;DHT22;30418;51.45933468;7.33152330;2023-04-15T13:36:53;12.70;58.90
9544;DHT22;30418;51.45933468;7.33152330;2023-04-15T13:39:21;12.70;58.80
9544;DHT22;30418;51.45933468;7.33152330;2023-04-15T13:41:50;12.70;58.90
9544;DHT22;30418;51.45933468;7.33152330;2023-04-15T13:44:18;12.70;58.80
9544;DHT22;30418;51.45933468;7.33152330;2023-04-15T13:46:48;12.70;58.90
9544;DHT22;30418;51.45933468;7.33152330;2023-04-15T13:49:16;12.70;59.00